Morning Clara — 9V7564 — position and weather

sailwx.info

Track history (hours):
 
Tides and Currents Weather Stations Pressure Air Temp Water Temp Dewpoint Dewpoint Depression Visibility Wind Speed Wind Dir Waves Ship Positions

Morning Clara

Last reported at 2017-Oct-13 07:28 UTC. Time now 2017-Oct-17 22:37 UTC.
Position N 22°29' E 113°45'.

Length 200 m; draft 9.5 m.

Type: Cargo ship. MMSI: 564254000.

Date/timePositionNaut miles runAvg speedWind from/ knotsBaromVisibWave heightAir tempDewpointWater temp
2017-Oct-13 07:28N 22°29' E 113°45'815.3
2017-Oct-13 06:58N 22°36' E 113°42'612.3
2017-Oct-13 06:30N 22°42' E 113°41'21 2.7
2017-Oct-12 22:44N 23°01' E 113°32'0 0.0
2017-Oct-12 22:30N 23°01' E 113°32'20 1.8
2017-Oct-12 11:38N 22°43' E 113°41'211.6
2017-Oct-12 11:30N 22°41' E 113°41'611.9
2017-Oct-12 11:00N 22°35' E 113°43'  
2017-Oct-09 03:58N 01°14' E 103°58'2 3.8
2017-Oct-09 03:30N 01°13' E 103°56'2 3.9
2017-Oct-09 03:00N 01°13' E 103°54'2 3.6
2017-Oct-09 02:30N 01°12' E 103°53'2 3.7
2017-Oct-09 02:01N 01°11' E 103°51'7 1.1
2017-Oct-08 19:31N 01°14' E 103°58'816.5
2017-Oct-08 19:01N 01°11' E 103°50'815.3
2017-Oct-08 18:30N 01°06' E 103°44'815.2
2017-Oct-08 17:59N 01°04' E 103°36'917.9
2017-Oct-08 17:28N 01°09' E 103°29'918.2
2017-Oct-08 16:58N 01°14' E 103°21'  
Track history (hours):
 
Tides and Currents Weather Stations Pressure Air Temp Water Temp Dewpoint Dewpoint Depression Visibility Wind Speed Wind Dir Waves Ship Positions

Morning Clara

Last reported at 2017-Oct-13 07:28 UTC. Time now 2017-Oct-17 22:37 UTC.
Position N 22°29' E 113°45'.

Length 200 m; draft 9.5 m.

Type: Cargo ship. MMSI: 564254000.

Date/timePositionNaut miles runAvg speedWind from/ knotsBaromVisibWave heightAir tempDewpointWater temp
2017-Oct-13 07:28N 22°29' E 113°45'815.3
2017-Oct-13 06:58N 22°36' E 113°42'612.3
2017-Oct-13 06:30N 22°42' E 113°41'21 2.7
2017-Oct-12 22:44N 23°01' E 113°32'0 0.0
2017-Oct-12 22:30N 23°01' E 113°32'20 1.8
2017-Oct-12 11:38N 22°43' E 113°41'211.6
2017-Oct-12 11:30N 22°41' E 113°41'611.9
2017-Oct-12 11:00N 22°35' E 113°43'  
2017-Oct-09 03:58N 01°14' E 103°58'2 3.8
2017-Oct-09 03:30N 01°13' E 103°56'2 3.9
2017-Oct-09 03:00N 01°13' E 103°54'2 3.6
2017-Oct-09 02:30N 01°12' E 103°53'2 3.7
2017-Oct-09 02:01N 01°11' E 103°51'7 1.1
2017-Oct-08 19:31N 01°14' E 103°58'816.5
2017-Oct-08 19:01N 01°11' E 103°50'815.3
2017-Oct-08 18:30N 01°06' E 103°44'815.2
2017-Oct-08 17:59N 01°04' E 103°36'917.9
2017-Oct-08 17:28N 01°09' E 103°29'918.2
2017-Oct-08 16:58N 01°14' E 103°21'  

Dump ship's entire track history